createdAt,value
2023-02-27T00:00:16.462Z,0.00
2023-02-27T00:06:57.234Z,0.00
2023-02-27T00:09:24.007Z,0.00
2023-02-27T00:11:50.830Z,0.10
2023-02-27T00:14:17.870Z,0.20
2023-02-27T00:16:44.548Z,0.10
2023-02-27T00:19:12.370Z,0.10
2023-02-27T00:21:39.306Z,0.20
2023-02-27T00:24:06.445Z,0.20
2023-02-27T00:26:33.088Z,0.10
2023-02-27T00:28:59.696Z,0.20
2023-02-27T00:31:26.696Z,0.20
2023-02-27T00:33:53.591Z,0.10
2023-02-27T00:36:20.231Z,0.10
2023-02-27T00:38:46.975Z,0.20
2023-02-27T00:41:13.709Z,0.20
2023-02-27T00:43:40.373Z,0.20
2023-02-27T00:46:07.029Z,0.10
2023-02-27T00:48:33.681Z,0.00
2023-02-27T00:51:01.570Z,0.20
2023-02-27T00:53:28.303Z,0.00
2023-02-27T00:55:54.944Z,-0.10
2023-02-27T00:58:21.648Z,-0.30
2023-02-27T01:00:48.326Z,-0.20
2023-02-27T01:03:15.018Z,-0.10
2023-02-27T01:05:41.945Z,-0.10
2023-02-27T01:08:08.568Z,-0.10
2023-02-27T01:10:35.911Z,0.00
2023-02-27T01:13:02.845Z,0.10
2023-02-27T01:15:29.455Z,0.00
2023-02-27T01:17:56.088Z,0.00
2023-02-27T01:20:22.810Z,0.00
2023-02-27T01:22:49.462Z,0.00
2023-02-27T01:25:16.202Z,-0.10
2023-02-27T01:27:42.975Z,-0.10
2023-02-27T01:30:11.606Z,-0.20
2023-02-27T01:32:38.379Z,-0.30
2023-02-27T01:35:05.510Z,-0.30
2023-02-27T01:37:32.170Z,-0.40
2023-02-27T01:39:58.811Z,-0.40
2023-02-27T01:42:28.399Z,-0.40
2023-02-27T01:45:11.962Z,-0.40
2023-02-27T01:47:42.953Z,-0.50
2023-02-27T01:50:11.413Z,-0.60
2023-02-27T01:52:39.714Z,-0.70
2023-02-27T01:55:08.577Z,-0.40
2023-02-27T01:57:36.375Z,-0.30
2023-02-27T02:00:05.832Z,-0.40
2023-02-27T02:02:42.552Z,-0.40
2023-02-27T02:05:11.786Z,-0.40
2023-02-27T02:07:40.138Z,-0.40
2023-02-27T02:10:07.837Z,-0.30
2023-02-27T02:12:38.030Z,-0.30
2023-02-27T02:15:06.175Z,-0.30
2023-02-27T02:18:14.702Z,-0.10
2023-02-27T02:20:45.466Z,-0.30
2023-02-27T02:23:28.253Z,-0.40
2023-02-27T02:26:07.947Z,-0.50
2023-02-27T02:29:00.516Z,-0.50
2023-02-27T02:31:39.354Z,-0.50
2023-02-27T02:34:21.105Z,-0.40
2023-02-27T02:37:27.277Z,-0.40
2023-02-27T02:40:12.170Z,-0.60
2023-02-27T02:43:00.798Z,-0.40
2023-02-27T02:45:36.375Z,-0.40
2023-02-27T02:48:52.443Z,-0.40
2023-02-27T02:51:47.749Z,-0.50
2023-02-27T02:54:23.044Z,-0.60
2023-02-27T02:57:00.169Z,-0.60
2023-02-27T02:59:33.147Z,-0.50
2023-02-27T03:02:04.717Z,-0.80
2023-02-27T03:04:34.007Z,-0.70
2023-02-27T03:07:18.399Z,-0.80
2023-02-27T03:09:53.184Z,-1.00
2023-02-27T03:12:24.700Z,-1.20
2023-02-27T03:15:19.054Z,-1.10
2023-02-27T03:18:17.679Z,-1.00
2023-02-27T03:20:51.318Z,-1.00
2023-02-27T03:23:23.963Z,-1.00
2023-02-27T03:25:53.222Z,-0.90
2023-02-27T03:28:26.175Z,-0.80
2023-02-27T03:31:01.605Z,-0.70
2023-02-27T03:33:35.081Z,-0.70
2023-02-27T03:36:27.458Z,-0.60
2023-02-27T03:39:25.116Z,-0.60
2023-02-27T03:41:58.816Z,-0.60
2023-02-27T03:45:05.893Z,-0.70
2023-02-27T03:47:34.320Z,-0.70
2023-02-27T03:50:01.342Z,-0.70
2023-02-27T03:52:29.992Z,-0.70
2023-02-27T03:55:05.917Z,-0.60
2023-02-27T03:57:35.563Z,-0.70
2023-02-27T04:00:05.388Z,-0.80
2023-02-27T04:02:41.853Z,-1.00
2023-02-27T04:05:08.935Z,-1.00
2023-02-27T04:07:52.952Z,-1.10
2023-02-27T04:10:27.043Z,-1.10
2023-02-27T04:13:16.959Z,-1.20
2023-02-27T04:16:15.605Z,-1.30
2023-02-27T04:18:48.949Z,-1.20
2023-02-27T04:21:22.541Z,-1.30
2023-02-27T04:24:17.075Z,-1.30
2023-02-27T04:27:12.756Z,-1.30
2023-02-27T04:30:19.399Z,-1.20
2023-02-27T04:33:04.627Z,-1.20
2023-02-27T04:35:43.538Z,-1.10
2023-02-27T04:38:30.039Z,-1.00
2023-02-27T04:41:07.252Z,-0.90
2023-02-27T04:43:37.374Z,-0.90
2023-02-27T04:46:06.746Z,-1.00
2023-02-27T04:48:38.880Z,-1.00
2023-02-27T04:51:19.971Z,-1.30
2023-02-27T04:53:52.357Z,-1.40
2023-02-27T04:56:27.527Z,-1.40
2023-02-27T04:59:03.421Z,-1.50
2023-02-27T05:01:40.660Z,-1.50
2023-02-27T05:04:12.310Z,-1.50
2023-02-27T05:06:43.195Z,-1.30
2023-02-27T05:09:22.382Z,-1.30
2023-02-27T05:12:19.499Z,-1.50
2023-02-27T05:15:12.960Z,-1.60
2023-02-27T05:18:00.702Z,-1.70
2023-02-27T05:20:36.311Z,-1.60
2023-02-27T05:23:16.222Z,-1.70
2023-02-27T05:26:14.767Z,-1.50
2023-02-27T05:29:05.534Z,-1.20
2023-02-27T05:31:54.252Z,-1.40
2023-02-27T05:34:37.664Z,-1.40
2023-02-27T05:37:12.148Z,-1.40
2023-02-27T05:39:40.425Z,-1.50
2023-02-27T05:42:13.864Z,-1.50
2023-02-27T05:44:47.524Z,-1.60
2023-02-27T05:47:20.532Z,-1.60
2023-02-27T05:50:03.287Z,-1.50
2023-02-27T05:52:31.883Z,-1.40
2023-02-27T05:55:27.793Z,-1.40
2023-02-27T05:57:59.305Z,-1.50
2023-02-27T06:00:37.383Z,-1.40
2023-02-27T06:03:04.244Z,-1.40
2023-02-27T06:05:31.254Z,-1.40
2023-02-27T06:07:57.944Z,-1.30
2023-02-27T06:10:24.866Z,-1.60
2023-02-27T06:12:51.790Z,-1.80
2023-02-27T06:15:19.535Z,-1.90
2023-02-27T06:17:46.192Z,-2.00
2023-02-27T06:20:12.919Z,-2.20
2023-02-27T06:22:40.106Z,-2.20
2023-02-27T06:25:07.361Z,-2.10
2023-02-27T06:27:34.204Z,-1.90
2023-02-27T06:30:00.942Z,-2.00
2023-02-27T06:32:27.982Z,-1.90
2023-02-27T06:34:54.724Z,-1.90
2023-02-27T06:37:21.857Z,-1.90
2023-02-27T06:39:48.597Z,-1.80
2023-02-27T06:42:15.377Z,-1.80
2023-02-27T06:44:42.161Z,-1.80
2023-02-27T06:47:08.919Z,-1.70
2023-02-27T06:49:35.863Z,-1.80
2023-02-27T06:52:02.595Z,-1.70
2023-02-27T06:54:29.310Z,-1.50
2023-02-27T06:56:56.274Z,-1.40
2023-02-27T06:59:23.004Z,-1.40
2023-02-27T07:01:49.989Z,-1.30
2023-02-27T07:04:17.178Z,-1.50
2023-02-27T07:07:36.133Z,-1.50
2023-02-27T07:09:30.695Z,-1.30
2023-02-27T07:11:57.382Z,-1.30
2023-02-27T07:14:25.595Z,-1.30
2023-02-27T07:16:55.441Z,-1.20
2023-02-27T07:19:26.168Z,-1.20
2023-02-27T07:21:53.093Z,-1.00
2023-02-27T07:24:19.796Z,-1.00
2023-02-27T07:26:53.580Z,-1.20
2023-02-27T07:29:20.349Z,-1.30
2023-02-27T07:31:50.773Z,-1.10
2023-02-27T07:34:17.522Z,-1.00
2023-02-27T07:36:44.237Z,-1.20
2023-02-27T07:39:16.556Z,-1.20
2023-02-27T07:41:46.430Z,-1.10
2023-02-27T07:44:17.163Z,-1.20
2023-02-27T07:46:44.733Z,-1.30
2023-02-27T07:49:11.568Z,-1.70
2023-02-27T07:51:38.354Z,-1.90
2023-02-27T07:54:05.574Z,-1.80
2023-02-27T07:56:32.395Z,-1.60
2023-02-27T07:58:59.096Z,-1.40
2023-02-27T08:01:25.897Z,-1.20
2023-02-27T08:03:52.522Z,-1.30
2023-02-27T08:06:19.657Z,-1.30
2023-02-27T08:08:46.712Z,-1.50
2023-02-27T08:11:18.883Z,-1.30
2023-02-27T08:14:02.816Z,-1.00
2023-02-27T08:16:31.961Z,-0.90
2023-02-27T08:18:59.577Z,-1.10
2023-02-27T08:21:27.465Z,-1.20
2023-02-27T08:23:54.487Z,-1.00
2023-02-27T08:26:24.190Z,-1.10
2023-02-27T08:28:57.617Z,-0.90
2023-02-27T08:31:25.127Z,-0.70
2023-02-27T08:34:04.294Z,-0.70
2023-02-27T08:36:36.293Z,-0.60
2023-02-27T08:39:03.030Z,-0.90
2023-02-27T08:41:30.322Z,-0.80
2023-02-27T08:43:57.391Z,-0.50
2023-02-27T08:46:24.845Z,-0.30
2023-02-27T08:48:52.421Z,-0.20
2023-02-27T08:51:19.182Z,-0.20
2023-02-27T08:53:45.843Z,-0.50
2023-02-27T08:56:15.698Z,-0.70
2023-02-27T08:58:42.626Z,-0.80
2023-02-27T09:01:09.939Z,-0.80
2023-02-27T09:03:37.647Z,-0.80
2023-02-27T09:06:05.159Z,-0.80
2023-02-27T09:08:32.346Z,-0.60
2023-02-27T09:10:59.315Z,-0.50
2023-02-27T09:13:27.042Z,-0.50
2023-02-27T09:15:54.482Z,-0.50
2023-02-27T09:18:22.440Z,-0.30
2023-02-27T09:20:51.287Z,0.00
2023-02-27T09:23:20.949Z,0.10
2023-02-27T09:25:47.722Z,0.30
2023-02-27T09:28:15.018Z,0.30
2023-02-27T09:30:42.443Z,0.20
2023-02-27T09:33:09.666Z,0.40
2023-02-27T09:35:37.853Z,0.60
2023-02-27T09:38:04.647Z,0.70
2023-02-27T09:40:37.786Z,0.70
2023-02-27T09:43:15.419Z,0.80
2023-02-27T09:45:44.660Z,0.80
2023-02-27T09:48:41.402Z,0.80
2023-02-27T09:51:08.183Z,0.80
2023-02-27T09:54:01.530Z,1.00
2023-02-27T09:56:38.285Z,0.50
2023-02-27T09:59:31.304Z,0.60
2023-02-27T10:02:01.210Z,0.80
2023-02-27T10:04:54.338Z,1.10
2023-02-27T10:07:32.645Z,1.30
2023-02-27T10:10:32.632Z,1.40
2023-02-27T10:13:11.607Z,1.60
2023-02-27T10:15:43.305Z,1.90
2023-02-27T10:18:26.971Z,2.30
2023-02-27T10:21:02.957Z,3.40
2023-02-27T10:23:53.268Z,4.60
2023-02-27T10:26:27.728Z,5.80
2023-02-27T10:28:54.414Z,7.30
2023-02-27T10:31:30.041Z,7.80
2023-02-27T10:33:58.447Z,8.70
2023-02-27T10:36:33.685Z,9.60
2023-02-27T10:39:07.055Z,10.70
2023-02-27T10:41:35.749Z,10.40
2023-02-27T10:44:02.393Z,9.80
2023-02-27T10:46:32.546Z,10.10
2023-02-27T10:49:10.792Z,10.80
2023-02-27T10:51:38.371Z,10.80
2023-02-27T10:54:20.439Z,10.70
2023-02-27T10:56:56.625Z,11.80
2023-02-27T10:59:25.573Z,12.50
2023-02-27T11:01:58.742Z,11.80
2023-02-27T11:04:32.601Z,12.00
2023-02-27T11:07:01.468Z,12.60
2023-02-27T11:09:32.387Z,12.60
2023-02-27T11:12:24.242Z,12.40
2023-02-27T11:14:53.917Z,13.50
2023-02-27T11:17:28.929Z,15.00
2023-02-27T11:19:57.833Z,15.50
2023-02-27T11:22:26.928Z,15.20
2023-02-27T11:25:20.526Z,15.20
2023-02-27T11:27:48.085Z,16.00
2023-02-27T11:30:29.217Z,14.10
2023-02-27T11:33:02.509Z,13.50
2023-02-27T11:35:32.712Z,14.40
2023-02-27T11:38:03.240Z,14.80
2023-02-27T11:40:37.321Z,14.90
2023-02-27T11:43:14.848Z,14.10
2023-02-27T11:46:04.402Z,12.60
2023-02-27T11:48:33.639Z,12.30
2023-02-27T11:51:28.691Z,11.30
2023-02-27T11:54:34.716Z,11.30
2023-02-27T11:57:05.677Z,11.00
2023-02-27T11:59:47.897Z,10.50
2023-02-27T12:02:22.672Z,9.70
2023-02-27T12:04:57.033Z,9.00
2023-02-27T12:07:38.659Z,8.00
2023-02-27T12:10:20.652Z,7.60
2023-02-27T12:12:50.113Z,7.20
2023-02-27T12:15:32.975Z,6.30
2023-02-27T12:18:10.922Z,5.80
2023-02-27T12:20:48.188Z,5.90
2023-02-27T12:23:35.726Z,5.70
2023-02-27T12:26:23.698Z,5.60
2023-02-27T12:28:56.190Z,5.20
2023-02-27T12:31:36.302Z,4.80
2023-02-27T12:34:20.344Z,5.40
2023-02-27T12:36:48.677Z,6.40
2023-02-27T12:39:20.934Z,7.00
2023-02-27T12:41:53.648Z,8.00
2023-02-27T12:44:31.733Z,8.30
2023-02-27T12:47:20.496Z,8.60
2023-02-27T12:50:00.368Z,8.80
2023-02-27T12:53:12.996Z,10.20
2023-02-27T12:56:14.683Z,11.40
2023-02-27T12:58:47.392Z,11.50
2023-02-27T13:01:43.135Z,10.70
2023-02-27T13:04:37.121Z,9.60
2023-02-27T13:07:34.830Z,9.30
2023-02-27T13:10:26.808Z,10.00
2023-02-27T13:13:10.616Z,11.30
2023-02-27T13:15:51.635Z,12.10
2023-02-27T13:18:56.953Z,11.30
2023-02-27T13:22:01.184Z,11.10
2023-02-27T13:24:30.039Z,11.10
2023-02-27T13:27:13.715Z,12.40
2023-02-27T13:29:48.579Z,13.30
2023-02-27T13:32:44.115Z,13.60
2023-02-27T13:35:38.732Z,13.90
2023-02-27T13:38:44.853Z,14.20
2023-02-27T13:41:21.255Z,14.90
2023-02-27T13:43:52.557Z,15.00
2023-02-27T13:46:32.382Z,15.00
2023-02-27T13:49:05.216Z,15.10
2023-02-27T13:51:45.678Z,15.10
2023-02-27T13:54:15.622Z,14.10
2023-02-27T13:56:54.586Z,12.30
2023-02-27T13:59:34.390Z,11.10
2023-02-27T14:02:30.973Z,11.10
2023-02-27T14:05:03.005Z,11.40
2023-02-27T14:07:33.994Z,11.60
2023-02-27T14:10:11.162Z,11.50
2023-02-27T14:12:46.329Z,12.10
2023-02-27T14:15:22.868Z,12.40
2023-02-27T14:18:12.642Z,12.40
2023-02-27T14:20:42.460Z,11.50
2023-02-27T14:23:16.038Z,10.70
2023-02-27T14:25:47.246Z,8.80
2023-02-27T14:28:47.925Z,7.90
2023-02-27T14:31:33.676Z,7.60
2023-02-27T14:34:06.398Z,7.40
2023-02-27T14:36:40.739Z,6.80
2023-02-27T14:39:17.748Z,6.00
2023-02-27T14:41:51.720Z,6.40
2023-02-27T14:44:27.802Z,6.90
2023-02-27T14:46:56.934Z,7.40
2023-02-27T14:49:28.350Z,7.80
2023-02-27T14:51:55.983Z,8.00
2023-02-27T14:54:27.490Z,7.80
2023-02-27T14:56:58.593Z,7.60
2023-02-27T14:59:28.664Z,7.30
2023-02-27T15:01:58.337Z,6.70
2023-02-27T15:04:30.773Z,6.50
2023-02-27T15:06:58.490Z,6.40
2023-02-27T15:09:38.194Z,6.20
2023-02-27T15:12:05.300Z,6.20
2023-02-27T15:14:38.521Z,6.20
2023-02-27T15:17:27.106Z,5.90
2023-02-27T15:19:59.422Z,5.90
2023-02-27T15:22:38.555Z,5.80
2023-02-27T15:25:07.795Z,5.30
2023-02-27T15:27:37.437Z,5.40
2023-02-27T15:30:05.060Z,5.60
2023-02-27T15:32:39.572Z,5.70
2023-02-27T15:35:30.826Z,6.00
2023-02-27T15:37:59.841Z,6.00
2023-02-27T15:40:29.804Z,5.50
2023-02-27T15:42:58.765Z,5.30
2023-02-27T15:45:31.140Z,5.00
2023-02-27T15:47:58.346Z,4.90
2023-02-27T15:50:36.939Z,5.00
2023-02-27T15:53:13.318Z,4.90
2023-02-27T15:55:42.696Z,4.60
2023-02-27T15:58:31.216Z,4.50
2023-02-27T16:01:13.205Z,4.50
2023-02-27T16:03:45.528Z,4.50
2023-02-27T16:06:23.270Z,4.60
2023-02-27T16:08:59.693Z,4.40
2023-02-27T16:11:32.097Z,4.50
2023-02-27T16:13:58.959Z,4.40
2023-02-27T16:16:39.031Z,4.20
2023-02-27T16:19:30.304Z,4.00
2023-02-27T16:22:24.789Z,3.70
2023-02-27T16:24:53.673Z,3.80
2023-02-27T16:27:26.516Z,3.90
2023-02-27T16:29:57.283Z,3.80
2023-02-27T16:32:36.015Z,3.80
2023-02-27T16:35:15.779Z,3.90
2023-02-27T16:37:43.311Z,4.00
2023-02-27T16:40:27.390Z,3.80
2023-02-27T16:42:54.340Z,3.70
2023-02-27T16:45:26.870Z,3.60
2023-02-27T16:47:59.025Z,3.50
2023-02-27T16:50:33.424Z,3.40
2023-02-27T16:53:00.418Z,3.50
2023-02-27T16:55:27.981Z,3.50
2023-02-27T16:57:54.676Z,3.50
2023-02-27T17:00:22.533Z,3.40
2023-02-27T17:02:50.020Z,3.40
2023-02-27T17:05:17.345Z,3.60
2023-02-27T17:07:44.711Z,3.70
2023-02-27T17:10:16.825Z,3.60
2023-02-27T17:12:44.092Z,3.30
2023-02-27T17:15:11.258Z,3.30
2023-02-27T17:17:38.009Z,3.40
2023-02-27T17:20:07.998Z,3.50
2023-02-27T17:22:39.424Z,3.20
2023-02-27T17:25:06.932Z,3.10
2023-02-27T17:27:33.872Z,3.20
2023-02-27T17:30:00.543Z,3.20
2023-02-27T17:32:27.875Z,2.90
2023-02-27T17:34:55.889Z,2.80
2023-02-27T17:37:23.050Z,2.80
2023-02-27T17:39:49.806Z,2.70
2023-02-27T17:42:18.487Z,2.70
2023-02-27T17:44:46.440Z,2.70
2023-02-27T17:47:14.028Z,2.70
2023-02-27T17:49:41.019Z,2.70
2023-02-27T17:52:08.307Z,2.70
2023-02-27T17:54:36.301Z,2.50
2023-02-27T17:57:04.795Z,2.50
2023-02-27T17:59:31.687Z,2.50
2023-02-27T18:01:59.046Z,2.50
2023-02-27T18:04:26.371Z,2.60
2023-02-27T18:06:53.381Z,2.50
2023-02-27T18:09:20.103Z,2.50
2023-02-27T18:11:46.809Z,2.50
2023-02-27T18:14:13.823Z,2.30
2023-02-27T18:16:41.314Z,2.40
2023-02-27T18:19:08.688Z,2.20
2023-02-27T18:21:36.347Z,2.10
2023-02-27T18:24:03.886Z,2.10
2023-02-27T18:26:32.133Z,1.90
2023-02-27T18:29:06.361Z,1.80
2023-02-27T18:31:37.036Z,2.00
2023-02-27T18:34:04.197Z,1.80
2023-02-27T18:36:31.909Z,1.80
2023-02-27T18:38:59.644Z,2.00
2023-02-27T18:41:26.878Z,2.20
2023-02-27T18:43:53.612Z,2.20
2023-02-27T18:46:20.538Z,1.90
2023-02-27T18:48:47.517Z,2.10
2023-02-27T18:51:16.248Z,2.20
2023-02-27T18:53:45.816Z,2.20
2023-02-27T18:56:13.867Z,2.30
2023-02-27T18:58:40.976Z,2.30
2023-02-27T19:01:08.383Z,2.30
2023-02-27T19:03:35.949Z,2.40
2023-02-27T19:06:02.667Z,2.60
2023-02-27T19:08:29.398Z,2.70
2023-02-27T19:10:59.624Z,2.70
2023-02-27T19:13:26.681Z,2.70
2023-02-27T19:15:53.931Z,2.70
2023-02-27T19:18:20.590Z,2.70
2023-02-27T19:20:47.582Z,2.70
2023-02-27T19:23:14.214Z,2.70
2023-02-27T19:25:41.954Z,2.70
2023-02-27T19:28:11.271Z,2.70
2023-02-27T19:30:41.037Z,2.80
2023-02-27T19:33:07.684Z,2.90
2023-02-27T19:35:34.373Z,2.90
2023-02-27T19:38:01.004Z,3.00
2023-02-27T19:40:28.186Z,2.90
2023-02-27T19:42:55.030Z,2.80
2023-02-27T19:45:23.080Z,2.80
2023-02-27T19:47:49.804Z,2.80
2023-02-27T19:50:16.774Z,2.80
2023-02-27T19:52:43.494Z,2.70
2023-02-27T19:55:10.451Z,2.60
2023-02-27T19:57:38.135Z,2.50
2023-02-27T20:00:06.971Z,2.40
2023-02-27T20:02:40.930Z,2.20
2023-02-27T20:05:08.021Z,2.20
2023-02-27T20:07:34.701Z,2.10
2023-02-27T20:10:01.312Z,2.10
2023-02-27T20:12:28.876Z,2.00
2023-02-27T20:14:55.551Z,1.80
2023-02-27T20:17:22.193Z,1.80
2023-02-27T20:19:48.826Z,1.80
2023-02-27T20:22:15.829Z,1.90
2023-02-27T20:24:44.544Z,1.90
2023-02-27T20:27:11.567Z,1.90
2023-02-27T20:29:38.403Z,2.00
2023-02-27T20:32:05.424Z,2.10
2023-02-27T20:34:32.150Z,2.00
2023-02-27T20:37:00.742Z,1.90
2023-02-27T20:39:28.850Z,1.70
2023-02-27T20:41:56.089Z,1.70
2023-02-27T20:44:22.778Z,1.80
2023-02-27T20:46:49.751Z,1.70
2023-02-27T20:49:16.792Z,1.90
2023-02-27T20:51:44.244Z,2.00
2023-02-27T20:54:20.009Z,1.80
2023-02-27T20:56:48.286Z,1.90
2023-02-27T20:59:17.217Z,1.90
2023-02-27T21:01:53.969Z,1.80
2023-02-27T21:04:22.095Z,1.90
2023-02-27T21:06:49.756Z,1.90
2023-02-27T21:09:19.741Z,2.10
2023-02-27T21:11:48.505Z,2.10
2023-02-27T21:14:15.377Z,2.00
2023-02-27T21:16:42.186Z,1.90
2023-02-27T21:19:09.020Z,1.80
2023-02-27T21:21:36.906Z,1.80
2023-02-27T21:24:05.654Z,1.80
2023-02-27T21:26:39.320Z,1.70
2023-02-27T21:29:15.203Z,1.70
2023-02-27T21:31:45.290Z,1.60
2023-02-27T21:34:15.411Z,1.50
2023-02-27T21:36:46.759Z,1.50
2023-02-27T21:39:22.892Z,1.40
2023-02-27T21:41:50.126Z,1.40
2023-02-27T21:44:19.265Z,1.50
2023-02-27T21:46:46.469Z,1.50
2023-02-27T21:49:19.946Z,1.50
2023-02-27T21:51:47.339Z,1.30
2023-02-27T21:54:15.842Z,1.30
2023-02-27T21:56:43.874Z,1.20
2023-02-27T21:59:11.298Z,1.20
2023-02-27T22:01:39.136Z,1.30
2023-02-27T22:04:06.761Z,1.30
2023-02-27T22:06:34.790Z,1.30
2023-02-27T22:09:05.350Z,1.40
2023-02-27T22:11:34.205Z,1.40
2023-02-27T22:14:01.221Z,1.40
2023-02-27T22:16:28.092Z,1.50
2023-02-27T22:18:55.033Z,1.50
2023-02-27T22:21:25.129Z,1.40
2023-02-27T22:23:59.571Z,1.30
2023-02-27T22:26:28.189Z,1.40
2023-02-27T22:28:58.389Z,1.50
2023-02-27T22:31:32.609Z,1.50
2023-02-27T22:34:02.236Z,1.50
2023-02-27T22:36:30.510Z,1.70
2023-02-27T22:38:57.644Z,1.70
2023-02-27T22:41:30.393Z,1.70
2023-02-27T22:43:59.845Z,1.60
2023-02-27T22:46:32.586Z,1.60
2023-02-27T22:49:02.433Z,1.50
2023-02-27T22:51:29.812Z,1.40
2023-02-27T22:53:58.747Z,1.20
2023-02-27T22:56:25.996Z,1.20
2023-02-27T22:58:53.237Z,1.20
2023-02-27T23:01:28.719Z,1.20
2023-02-27T23:03:57.628Z,1.00
2023-02-27T23:06:30.775Z,0.90
2023-02-27T23:08:58.015Z,1.00
2023-02-27T23:11:24.631Z,1.00
2023-02-27T23:13:51.554Z,0.90
2023-02-27T23:16:19.056Z,0.90
2023-02-27T23:18:58.008Z,1.00
2023-02-27T23:21:29.734Z,1.10
2023-02-27T23:23:57.529Z,1.20
2023-02-27T23:26:24.849Z,1.10
2023-02-27T23:28:51.661Z,1.00
2023-02-27T23:31:18.265Z,1.00
2023-02-27T23:33:45.535Z,1.00
2023-02-27T23:36:12.196Z,1.00
2023-02-27T23:38:39.631Z,0.90
2023-02-27T23:41:08.384Z,0.90
2023-02-27T23:43:35.621Z,0.90
2023-02-27T23:46:10.272Z,1.00
2023-02-27T23:48:37.187Z,0.90
2023-02-27T23:51:05.760Z,1.00
2023-02-27T23:53:33.474Z,0.90
2023-02-27T23:56:00.111Z,1.00
2023-02-27T23:58:26.842Z,0.90
